<?xml version="1.0" encoding="UTF-8" standalone="no" ?>
<gpx xmlns="http://www.topografix.com/GPX/1/1" xmlns:xsi="http://www.w3.org/2001/XMLSchema-instance" xsi:schemaLocation="http://www.topografix.com/GPX/1/1 http://www.topografix.com/GPX/1/1/gpx.xsd" version="1.1" creator="VisuGPX - https://www.visugpx.com">
  <metadata>
    <name>Tour de France 2019</name>
    <desc><![CDATA[4272km en 2 mois en tandem avec notre petit chien dans le panier avant]]></desc>
  </metadata>
  <trk>
    <name><![CDATA[Tracé 20191006-100734]]></name>
    <trkseg>
      <trkpt lat="45.78592" lon="5.40836">
        <ele>303.381</ele>
        <time>2019-10-06T08:07:49Z</time>
      </trkpt>
      <trkpt lat="45.78602" lon="5.40811">
        <ele>310.399</ele>
        <time>2019-10-06T08:12:04Z</time>
      </trkpt>
      <trkpt lat="45.78625" lon="5.40715">
        <ele>314.727</ele>
        <time>2019-10-06T08:15:52Z</time>
      </trkpt>
      <trkpt lat="45.78538" lon="5.40673">
        <ele>310.654</ele>
        <time>2019-10-06T08:16:22Z</time>
      </trkpt>
      <trkpt lat="45.78645" lon="5.40651">
        <ele>304.982</ele>
        <time>2019-10-06T08:16:55Z</time>
      </trkpt>
      <trkpt lat="45.78964" lon="5.40734">
        <ele>282.291</ele>
        <time>2019-10-06T08:17:25Z</time>
      </trkpt>
      <trkpt lat="45.79278" lon="5.40851">
        <ele>261.385</ele>
        <time>2019-10-06T08:17:55Z</time>
      </trkpt>
      <trkpt lat="45.79375" lon="5.41072">
        <ele>254.822</ele>
        <time>2019-10-06T08:18:25Z</time>
      </trkpt>
      <trkpt lat="45.79372" lon="5.41188">
        <ele>253.61</ele>
        <time>2019-10-06T08:19:10Z</time>
      </trkpt>
      <trkpt lat="45.79399" lon="5.4128">
        <ele>249.918</ele>
        <time>2019-10-06T08:19:49Z</time>
      </trkpt>
      <trkpt lat="45.79554" lon="5.41524">
        <ele>241.528</ele>
        <time>2019-10-06T08:20:19Z</time>
      </trkpt>
      <trkpt lat="45.79579" lon="5.41559">
        <ele>239.75</ele>
        <time>2019-10-06T08:22:49Z</time>
      </trkpt>
      <trkpt lat="45.79587" lon="5.41582">
        <ele>242.063</ele>
        <time>2019-10-06T08:24:19Z</time>
      </trkpt>
      <trkpt lat="45.79749" lon="5.41846">
        <ele>225.625</ele>
        <time>2019-10-06T08:24:49Z</time>
      </trkpt>
      <trkpt lat="45.79957" lon="5.41972">
        <ele>216.703</ele>
        <time>2019-10-06T08:25:19Z</time>
      </trkpt>
      <trkpt lat="45.80064" lon="5.42056">
        <ele>217.77</ele>
        <time>2019-10-06T08:25:49Z</time>
      </trkpt>
      <trkpt lat="45.79964" lon="5.42142">
        <ele>219.914</ele>
        <time>2019-10-06T08:26:19Z</time>
      </trkpt>
      <trkpt lat="45.79992" lon="5.42335">
        <ele>219.274</ele>
        <time>2019-10-06T08:26:49Z</time>
      </trkpt>
      <trkpt lat="45.79994" lon="5.42489">
        <ele>227.041</ele>
        <time>2019-10-06T08:27:22Z</time>
      </trkpt>
      <trkpt lat="45.79894" lon="5.42585">
        <ele>225.1</ele>
        <time>2019-10-06T08:27:52Z</time>
      </trkpt>
      <trkpt lat="45.79823" lon="5.42734">
        <ele>225.658</ele>
        <time>2019-10-06T08:28:22Z</time>
      </trkpt>
      <trkpt lat="45.79742" lon="5.42922">
        <ele>222.308</ele>
        <time>2019-10-06T08:28:52Z</time>
      </trkpt>
      <trkpt lat="45.7965" lon="5.43046">
        <ele>223.961</ele>
        <time>2019-10-06T08:29:22Z</time>
      </trkpt>
      <trkpt lat="45.79516" lon="5.4311">
        <ele>227.396</ele>
        <time>2019-10-06T08:29:52Z</time>
      </trkpt>
      <trkpt lat="45.79382" lon="5.43212">
        <ele>221.77</ele>
        <time>2019-10-06T08:30:22Z</time>
      </trkpt>
      <trkpt lat="45.79283" lon="5.43318">
        <ele>225.187</ele>
        <time>2019-10-06T08:30:55Z</time>
      </trkpt>
      <trkpt lat="45.7916" lon="5.43395">
        <ele>224.306</ele>
        <time>2019-10-06T08:31:25Z</time>
      </trkpt>
      <trkpt lat="45.79072" lon="5.43482">
        <ele>226.58</ele>
        <time>2019-10-06T08:31:55Z</time>
      </trkpt>
      <trkpt lat="45.79002" lon="5.4354">
        <ele>233.801</ele>
        <time>2019-10-06T08:32:25Z</time>
      </trkpt>
      <trkpt lat="45.78958" lon="5.43536">
        <ele>241.962</ele>
        <time>2019-10-06T08:32:55Z</time>
      </trkpt>
      <trkpt lat="45.78913" lon="5.43199">
        <ele>224.889</ele>
        <time>2019-10-06T08:33:25Z</time>
      </trkpt>
      <trkpt lat="45.7876" lon="5.43206">
        <ele>223.95</ele>
        <time>2019-10-06T08:33:55Z</time>
      </trkpt>
      <trkpt lat="45.78611" lon="5.43225">
        <ele>223.936</ele>
        <time>2019-10-06T08:34:28Z</time>
      </trkpt>
      <trkpt lat="45.78505" lon="5.43218">
        <ele>223.492</ele>
        <time>2019-10-06T08:34:58Z</time>
      </trkpt>
      <trkpt lat="45.78357" lon="5.43217">
        <ele>224.381</ele>
        <time>2019-10-06T08:35:28Z</time>
      </trkpt>
      <trkpt lat="45.78217" lon="5.43213">
        <ele>228.703</ele>
        <time>2019-10-06T08:35:58Z</time>
      </trkpt>
      <trkpt lat="45.78108" lon="5.43296">
        <ele>228.477</ele>
        <time>2019-10-06T08:36:28Z</time>
      </trkpt>
      <trkpt lat="45.78003" lon="5.43404">
        <ele>227.692</ele>
        <time>2019-10-06T08:36:58Z</time>
      </trkpt>
      <trkpt lat="45.77908" lon="5.43599">
        <ele>225.752</ele>
        <time>2019-10-06T08:37:28Z</time>
      </trkpt>
      <trkpt lat="45.77827" lon="5.43476">
        <ele>225.772</ele>
        <time>2019-10-06T08:38:01Z</time>
      </trkpt>
      <trkpt lat="45.77764" lon="5.43328">
        <ele>228.467</ele>
        <time>2019-10-06T08:38:31Z</time>
      </trkpt>
      <trkpt lat="45.77603" lon="5.4335">
        <ele>228.484</ele>
        <time>2019-10-06T08:39:01Z</time>
      </trkpt>
      <trkpt lat="45.77496" lon="5.43321">
        <ele>225.862</ele>
        <time>2019-10-06T08:39:31Z</time>
      </trkpt>
      <trkpt lat="45.77357" lon="5.43234">
        <ele>224.87</ele>
        <time>2019-10-06T08:40:01Z</time>
      </trkpt>
      <trkpt lat="45.77239" lon="5.43083">
        <ele>229.242</ele>
        <time>2019-10-06T08:40:31Z</time>
      </trkpt>
      <trkpt lat="45.77187" lon="5.43137">
        <ele>221.729</ele>
        <time>2019-10-06T08:41:01Z</time>
      </trkpt>
      <trkpt lat="45.77115" lon="5.43235">
        <ele>226.453</ele>
        <time>2019-10-06T08:41:31Z</time>
      </trkpt>
      <trkpt lat="45.77087" lon="5.43362">
        <ele>232.493</ele>
        <time>2019-10-06T08:42:04Z</time>
      </trkpt>
      <trkpt lat="45.77028" lon="5.43329">
        <ele>225.456</ele>
        <time>2019-10-06T08:42:34Z</time>
      </trkpt>
      <trkpt lat="45.76979" lon="5.43162">
        <ele>227.528</ele>
        <time>2019-10-06T08:43:04Z</time>
      </trkpt>
      <trkpt lat="45.76919" lon="5.4298">
        <ele>229.272</ele>
        <time>2019-10-06T08:43:34Z</time>
      </trkpt>
      <trkpt lat="45.76817" lon="5.42793">
        <ele>227.041</ele>
        <time>2019-10-06T08:44:04Z</time>
      </trkpt>
      <trkpt lat="45.76743" lon="5.42639">
        <ele>232.135</ele>
        <time>2019-10-06T08:44:34Z</time>
      </trkpt>
      <trkpt lat="45.7663" lon="5.42544">
        <ele>234.107</ele>
        <time>2019-10-06T08:45:04Z</time>
      </trkpt>
      <trkpt lat="45.76481" lon="5.42459">
        <ele>228.377</ele>
        <time>2019-10-06T08:45:37Z</time>
      </trkpt>
      <trkpt lat="45.76352" lon="5.42462">
        <ele>234.407</ele>
        <time>2019-10-06T08:46:07Z</time>
      </trkpt>
      <trkpt lat="45.76206" lon="5.42461">
        <ele>237.627</ele>
        <time>2019-10-06T08:46:37Z</time>
      </trkpt>
      <trkpt lat="45.76088" lon="5.425">
        <ele>232.24</ele>
        <time>2019-10-06T08:47:07Z</time>
      </trkpt>
      <trkpt lat="45.76013" lon="5.42617">
        <ele>233.877</ele>
        <time>2019-10-06T08:47:37Z</time>
      </trkpt>
      <trkpt lat="45.7589" lon="5.42639">
        <ele>232.903</ele>
        <time>2019-10-06T08:48:07Z</time>
      </trkpt>
      <trkpt lat="45.75749" lon="5.42653">
        <ele>232.428</ele>
        <time>2019-10-06T08:48:37Z</time>
      </trkpt>
      <trkpt lat="45.75624" lon="5.42706">
        <ele>231.372</ele>
        <time>2019-10-06T08:49:10Z</time>
      </trkpt>
      <trkpt lat="45.75568" lon="5.42619">
        <ele>239.646</ele>
        <time>2019-10-06T08:49:40Z</time>
      </trkpt>
      <trkpt lat="45.7542" lon="5.42549">
        <ele>240.535</ele>
        <time>2019-10-06T08:50:10Z</time>
      </trkpt>
      <trkpt lat="45.75287" lon="5.42538">
        <ele>246.006</ele>
        <time>2019-10-06T08:50:40Z</time>
      </trkpt>
      <trkpt lat="45.75128" lon="5.42522">
        <ele>251.742</ele>
        <time>2019-10-06T08:51:10Z</time>
      </trkpt>
      <trkpt lat="45.74982" lon="5.42493">
        <ele>245.235</ele>
        <time>2019-10-06T08:51:40Z</time>
      </trkpt>
      <trkpt lat="45.74855" lon="5.42449">
        <ele>244.183</ele>
        <time>2019-10-06T08:52:10Z</time>
      </trkpt>
      <trkpt lat="45.74686" lon="5.4241">
        <ele>240.627</ele>
        <time>2019-10-06T08:52:43Z</time>
      </trkpt>
      <trkpt lat="45.74545" lon="5.42372">
        <ele>242.771</ele>
        <time>2019-10-06T08:53:13Z</time>
      </trkpt>
      <trkpt lat="45.74398" lon="5.42352">
        <ele>241.966</ele>
        <time>2019-10-06T08:53:43Z</time>
      </trkpt>
      <trkpt lat="45.74257" lon="5.4232">
        <ele>248.06</ele>
        <time>2019-10-06T08:54:13Z</time>
      </trkpt>
      <trkpt lat="45.74096" lon="5.42288">
        <ele>234.891</ele>
        <time>2019-10-06T08:54:43Z</time>
      </trkpt>
      <trkpt lat="45.73947" lon="5.42252">
        <ele>233.58</ele>
        <time>2019-10-06T08:55:13Z</time>
      </trkpt>
      <trkpt lat="45.73798" lon="5.42225">
        <ele>238.21</ele>
        <time>2019-10-06T08:55:43Z</time>
      </trkpt>
      <trkpt lat="45.73637" lon="5.42196">
        <ele>247.542</ele>
        <time>2019-10-06T08:56:16Z</time>
      </trkpt>
      <trkpt lat="45.73483" lon="5.42226">
        <ele>251.21</ele>
        <time>2019-10-06T08:56:46Z</time>
      </trkpt>
      <trkpt lat="45.73344" lon="5.42344">
        <ele>243.455</ele>
        <time>2019-10-06T08:57:16Z</time>
      </trkpt>
      <trkpt lat="45.73235" lon="5.42488">
        <ele>241.488</ele>
        <time>2019-10-06T08:57:46Z</time>
      </trkpt>
      <trkpt lat="45.73107" lon="5.42594">
        <ele>245.391</ele>
        <time>2019-10-06T08:58:16Z</time>
      </trkpt>
      <trkpt lat="45.72961" lon="5.42633">
        <ele>252.387</ele>
        <time>2019-10-06T08:58:46Z</time>
      </trkpt>
      <trkpt lat="45.72808" lon="5.42598">
        <ele>247.45</ele>
        <time>2019-10-06T08:59:16Z</time>
      </trkpt>
      <trkpt lat="45.72664" lon="5.42509">
        <ele>240.496</ele>
        <time>2019-10-06T08:59:46Z</time>
      </trkpt>
      <trkpt lat="45.72513" lon="5.42434">
        <ele>243.812</ele>
        <time>2019-10-06T09:00:19Z</time>
      </trkpt>
      <trkpt lat="45.72376" lon="5.42372">
        <ele>244.829</ele>
        <time>2019-10-06T09:00:49Z</time>
      </trkpt>
      <trkpt lat="45.72233" lon="5.42322">
        <ele>248.619</ele>
        <time>2019-10-06T09:01:19Z</time>
      </trkpt>
      <trkpt lat="45.72073" lon="5.42263">
        <ele>242.228</ele>
        <time>2019-10-06T09:01:49Z</time>
      </trkpt>
      <trkpt lat="45.71926" lon="5.42217">
        <ele>238.875</ele>
        <time>2019-10-06T09:02:19Z</time>
      </trkpt>
      <trkpt lat="45.71759" lon="5.42227">
        <ele>231.782</ele>
        <time>2019-10-06T09:02:49Z</time>
      </trkpt>
      <trkpt lat="45.71607" lon="5.42228">
        <ele>235.028</ele>
        <time>2019-10-06T09:03:19Z</time>
      </trkpt>
      <trkpt lat="45.71408" lon="5.42221">
        <ele>233.779</ele>
        <time>2019-10-06T09:03:52Z</time>
      </trkpt>
      <trkpt lat="45.7124" lon="5.42155">
        <ele>234.086</ele>
        <time>2019-10-06T09:04:22Z</time>
      </trkpt>
      <trkpt lat="45.71099" lon="5.42033">
        <ele>231.688</ele>
        <time>2019-10-06T09:04:52Z</time>
      </trkpt>
      <trkpt lat="45.70928" lon="5.42096">
        <ele>225.683</ele>
        <time>2019-10-06T09:05:22Z</time>
      </trkpt>
      <trkpt lat="45.70774" lon="5.4209">
        <ele>223.638</ele>
        <time>2019-10-06T09:05:52Z</time>
      </trkpt>
      <trkpt lat="45.70705" lon="5.4217">
        <ele>219.882</ele>
        <time>2019-10-06T09:06:22Z</time>
      </trkpt>
      <trkpt lat="45.7071" lon="5.42396">
        <ele>221.433</ele>
        <time>2019-10-06T09:06:52Z</time>
      </trkpt>
      <trkpt lat="45.70685" lon="5.42597">
        <ele>228.907</ele>
        <time>2019-10-06T09:07:25Z</time>
      </trkpt>
      <trkpt lat="45.70634" lon="5.4269">
        <ele>235.195</ele>
        <time>2019-10-06T09:07:55Z</time>
      </trkpt>
      <trkpt lat="45.70595" lon="5.42741">
        <ele>238.551</ele>
        <time>2019-10-06T09:08:25Z</time>
      </trkpt>
      <trkpt lat="45.70569" lon="5.42826">
        <ele>241.84</ele>
        <time>2019-10-06T09:08:55Z</time>
      </trkpt>
      <trkpt lat="45.70522" lon="5.42868">
        <ele>244.28</ele>
        <time>2019-10-06T09:09:25Z</time>
      </trkpt>
      <trkpt lat="45.7049" lon="5.42901">
        <ele>243.577</ele>
        <time>2019-10-06T09:12:31.001Z</time>
      </trkpt>
      <trkpt lat="45.70433" lon="5.42994">
        <ele>248.874</ele>
        <time>2019-10-06T09:13:01.001Z</time>
      </trkpt>
      <trkpt lat="45.70321" lon="5.43007">
        <ele>255.824</ele>
        <time>2019-10-06T09:13:37.001Z</time>
      </trkpt>
      <trkpt lat="45.70209" lon="5.43029">
        <ele>254.366</ele>
        <time>2019-10-06T09:14:07.001Z</time>
      </trkpt>
      <trkpt lat="45.70116" lon="5.43146">
        <ele>248.363</ele>
        <time>2019-10-06T09:14:37.001Z</time>
      </trkpt>
      <trkpt lat="45.70118" lon="5.43322">
        <ele>248.388</ele>
        <time>2019-10-06T09:15:07.001Z</time>
      </trkpt>
      <trkpt lat="45.69978" lon="5.4344">
        <ele>246.216</ele>
        <time>2019-10-06T09:15:37.001Z</time>
      </trkpt>
      <trkpt lat="45.69848" lon="5.43547">
        <ele>247.166</ele>
        <time>2019-10-06T09:16:07.001Z</time>
      </trkpt>
      <trkpt lat="45.69703" lon="5.4367">
        <ele>244.862</ele>
        <time>2019-10-06T09:16:37.001Z</time>
      </trkpt>
      <trkpt lat="45.69657" lon="5.43885">
        <ele>245.528</ele>
        <time>2019-10-06T09:17:10.001Z</time>
      </trkpt>
      <trkpt lat="45.69568" lon="5.44113">
        <ele>238.042</ele>
        <time>2019-10-06T09:17:40.001Z</time>
      </trkpt>
      <trkpt lat="45.69466" lon="5.44281">
        <ele>241.419</ele>
        <time>2019-10-06T09:18:10.001Z</time>
      </trkpt>
      <trkpt lat="45.69393" lon="5.44425">
        <ele>243.862</ele>
        <time>2019-10-06T09:18:40.001Z</time>
      </trkpt>
      <trkpt lat="45.69361" lon="5.44608">
        <ele>243.617</ele>
        <time>2019-10-06T09:19:10.001Z</time>
      </trkpt>
      <trkpt lat="45.69358" lon="5.44847">
        <ele>239.364</ele>
        <time>2019-10-06T09:19:40.001Z</time>
      </trkpt>
      <trkpt lat="45.69274" lon="5.45095">
        <ele>236.775</ele>
        <time>2019-10-06T09:20:10.001Z</time>
      </trkpt>
      <trkpt lat="45.69146" lon="5.45299">
        <ele>234.434</ele>
        <time>2019-10-06T09:20:43.001Z</time>
      </trkpt>
      <trkpt lat="45.68998" lon="5.45425">
        <ele>234.512</ele>
        <time>2019-10-06T09:21:13.001Z</time>
      </trkpt>
      <trkpt lat="45.68844" lon="5.45559">
        <ele>235.344</ele>
        <time>2019-10-06T09:21:43.001Z</time>
      </trkpt>
      <trkpt lat="45.68662" lon="5.45727">
        <ele>230.626</ele>
        <time>2019-10-06T09:22:13.001Z</time>
      </trkpt>
      <trkpt lat="45.68464" lon="5.45849">
        <ele>224.923</ele>
        <time>2019-10-06T09:22:43.001Z</time>
      </trkpt>
      <trkpt lat="45.68335" lon="5.45839">
        <ele>229.517</ele>
        <time>2019-10-06T09:23:13.001Z</time>
      </trkpt>
      <trkpt lat="45.68214" lon="5.45811">
        <ele>229.314</ele>
        <time>2019-10-06T09:23:43.001Z</time>
      </trkpt>
      <trkpt lat="45.68076" lon="5.45793">
        <ele>229.102</ele>
        <time>2019-10-06T09:24:13.001Z</time>
      </trkpt>
      <trkpt lat="45.67896" lon="5.4575">
        <ele>227.659</ele>
        <time>2019-10-06T09:24:46.001Z</time>
      </trkpt>
      <trkpt lat="45.67763" lon="5.45809">
        <ele>226.348</ele>
        <time>2019-10-06T09:25:16Z</time>
      </trkpt>
      <trkpt lat="45.67592" lon="5.46023">
        <ele>218.366</ele>
        <time>2019-10-06T09:25:46.001Z</time>
      </trkpt>
      <trkpt lat="45.67457" lon="5.46176">
        <ele>211.937</ele>
        <time>2019-10-06T09:26:16Z</time>
      </trkpt>
      <trkpt lat="45.67391" lon="5.46347">
        <ele>214.098</ele>
        <time>2019-10-06T09:26:46.001Z</time>
      </trkpt>
      <trkpt lat="45.67342" lon="5.46536">
        <ele>215.885</ele>
        <time>2019-10-06T09:27:16Z</time>
      </trkpt>
      <trkpt lat="45.67337" lon="5.4673">
        <ele>214.928</ele>
        <time>2019-10-06T09:27:46.001Z</time>
      </trkpt>
      <trkpt lat="45.67324" lon="5.46956">
        <ele>216.401</ele>
        <time>2019-10-06T09:28:19.001Z</time>
      </trkpt>
      <trkpt lat="45.67253" lon="5.47082">
        <ele>222.897</ele>
        <time>2019-10-06T09:28:49.001Z</time>
      </trkpt>
      <trkpt lat="45.67276" lon="5.47174">
        <ele>217.43</ele>
        <time>2019-10-06T09:29:19.001Z</time>
      </trkpt>
      <trkpt lat="45.67271" lon="5.47323">
        <ele>217.999</ele>
        <time>2019-10-06T09:29:49.001Z</time>
      </trkpt>
      <trkpt lat="45.67257" lon="5.47522">
        <ele>217.785</ele>
        <time>2019-10-06T09:30:19.001Z</time>
      </trkpt>
      <trkpt lat="45.67253" lon="5.4773">
        <ele>213.814</ele>
        <time>2019-10-06T09:30:49.001Z</time>
      </trkpt>
      <trkpt lat="45.67378" lon="5.47801">
        <ele>211.559</ele>
        <time>2019-10-06T09:31:19.001Z</time>
      </trkpt>
      <trkpt lat="45.67424" lon="5.4793">
        <ele>211.497</ele>
        <time>2019-10-06T09:31:52.001Z</time>
      </trkpt>
      <trkpt lat="45.67371" lon="5.48122">
        <ele>211.424</ele>
        <time>2019-10-06T09:32:22.001Z</time>
      </trkpt>
      <trkpt lat="45.67337" lon="5.4829">
        <ele>214.22</ele>
        <time>2019-10-06T09:32:52.001Z</time>
      </trkpt>
      <trkpt lat="45.67416" lon="5.48467">
        <ele>215.158</ele>
        <time>2019-10-06T09:33:22.001Z</time>
      </trkpt>
      <trkpt lat="45.67494" lon="5.48645">
        <ele>210.894</ele>
        <time>2019-10-06T09:33:52.001Z</time>
      </trkpt>
      <trkpt lat="45.67575" lon="5.48823">
        <ele>210.834</ele>
        <time>2019-10-06T09:34:22.001Z</time>
      </trkpt>
      <trkpt lat="45.67652" lon="5.48998">
        <ele>211.95</ele>
        <time>2019-10-06T09:34:52.001Z</time>
      </trkpt>
      <trkpt lat="45.67737" lon="5.49187">
        <ele>215.374</ele>
        <time>2019-10-06T09:35:25.001Z</time>
      </trkpt>
      <trkpt lat="45.67812" lon="5.49358">
        <ele>212.708</ele>
        <time>2019-10-06T09:35:55.001Z</time>
      </trkpt>
      <trkpt lat="45.67891" lon="5.49528">
        <ele>212.69</ele>
        <time>2019-10-06T09:36:25.001Z</time>
      </trkpt>
      <trkpt lat="45.68002" lon="5.49656">
        <ele>209.348</ele>
        <time>2019-10-06T09:36:55.001Z</time>
      </trkpt>
      <trkpt lat="45.68117" lon="5.49779">
        <ele>208.237</ele>
        <time>2019-10-06T09:37:25.001Z</time>
      </trkpt>
      <trkpt lat="45.68241" lon="5.49885">
        <ele>207.275</ele>
        <time>2019-10-06T09:37:55.001Z</time>
      </trkpt>
      <trkpt lat="45.6835" lon="5.50013">
        <ele>209.012</ele>
        <time>2019-10-06T09:38:25.001Z</time>
      </trkpt>
      <trkpt lat="45.68475" lon="5.5014">
        <ele>209.987</ele>
        <time>2019-10-06T09:38:58.001Z</time>
      </trkpt>
      <trkpt lat="45.68598" lon="5.50241">
        <ele>210.713</ele>
        <time>2019-10-06T09:39:28.001Z</time>
      </trkpt>
      <trkpt lat="45.68725" lon="5.50338">
        <ele>208.39</ele>
        <time>2019-10-06T09:39:58.001Z</time>
      </trkpt>
      <trkpt lat="45.68843" lon="5.50433">
        <ele>208.872</ele>
        <time>2019-10-06T09:40:28.001Z</time>
      </trkpt>
      <trkpt lat="45.68952" lon="5.50519">
        <ele>208.271</ele>
        <time>2019-10-06T09:40:58.001Z</time>
      </trkpt>
      <trkpt lat="45.69016" lon="5.5064">
        <ele>207.96</ele>
        <time>2019-10-06T09:41:28.001Z</time>
      </trkpt>
      <trkpt lat="45.69148" lon="5.50651">
        <ele>207.656</ele>
        <time>2019-10-06T09:41:58.001Z</time>
      </trkpt>
      <trkpt lat="45.69292" lon="5.50697">
        <ele>209.955</ele>
        <time>2019-10-06T09:42:31.001Z</time>
      </trkpt>
      <trkpt lat="45.69222" lon="5.50843">
        <ele>210.974</ele>
        <time>2019-10-06T09:43:01.001Z</time>
      </trkpt>
      <trkpt lat="45.69199" lon="5.51046">
        <ele>209.924</ele>
        <time>2019-10-06T09:43:31.001Z</time>
      </trkpt>
      <trkpt lat="45.69155" lon="5.51229">
        <ele>215.73</ele>
        <time>2019-10-06T09:44:01.001Z</time>
      </trkpt>
      <trkpt lat="45.69087" lon="5.51349">
        <ele>210.39</ele>
        <time>2019-10-06T09:44:31.001Z</time>
      </trkpt>
      <trkpt lat="45.69111" lon="5.5155">
        <ele>209.63</ele>
        <time>2019-10-06T09:45:01.001Z</time>
      </trkpt>
      <trkpt lat="45.69193" lon="5.51661">
        <ele>212.474</ele>
        <time>2019-10-06T09:45:31.001Z</time>
      </trkpt>
      <trkpt lat="45.69314" lon="5.5176">
        <ele>214.702</ele>
        <time>2019-10-06T09:46:01.001Z</time>
      </trkpt>
      <trkpt lat="45.69428" lon="5.51899">
        <ele>216.644</ele>
        <time>2019-10-06T09:46:34.001Z</time>
      </trkpt>
      <trkpt lat="45.69514" lon="5.5204">
        <ele>214.319</ele>
        <time>2019-10-06T09:47:04.001Z</time>
      </trkpt>
      <trkpt lat="45.69581" lon="5.52151">
        <ele>213.356</ele>
        <time>2019-10-06T09:47:34.001Z</time>
      </trkpt>
      <trkpt lat="45.6963" lon="5.52208">
        <ele>219.602</ele>
        <time>2019-10-06T09:48:04.001Z</time>
      </trkpt>
      <trkpt lat="45.69695" lon="5.52164">
        <ele>218.347</ele>
        <time>2019-10-06T09:48:34.001Z</time>
      </trkpt>
      <trkpt lat="45.6981" lon="5.52238">
        <ele>219.925</ele>
        <time>2019-10-06T09:49:04.001Z</time>
      </trkpt>
      <trkpt lat="45.69909" lon="5.52332">
        <ele>212.709</ele>
        <time>2019-10-06T09:49:34.001Z</time>
      </trkpt>
      <trkpt lat="45.69909" lon="5.5254">
        <ele>210.864</ele>
        <time>2019-10-06T09:50:07.001Z</time>
      </trkpt>
      <trkpt lat="45.69987" lon="5.52687">
        <ele>211.428</ele>
        <time>2019-10-06T09:50:37.001Z</time>
      </trkpt>
      <trkpt lat="45.7008" lon="5.52846">
        <ele>214.04</ele>
        <time>2019-10-06T09:51:07.001Z</time>
      </trkpt>
      <trkpt lat="45.70191" lon="5.52862">
        <ele>212.212</ele>
        <time>2019-10-06T09:51:37.001Z</time>
      </trkpt>
      <trkpt lat="45.70321" lon="5.52767">
        <ele>212.717</ele>
        <time>2019-10-06T09:52:07.001Z</time>
      </trkpt>
      <trkpt lat="45.70441" lon="5.5271">
        <ele>214.674</ele>
        <time>2019-10-06T09:52:37.001Z</time>
      </trkpt>
      <trkpt lat="45.70583" lon="5.52698">
        <ele>210.644</ele>
        <time>2019-10-06T09:53:07.001Z</time>
      </trkpt>
      <trkpt lat="45.70699" lon="5.52713">
        <ele>219.271</ele>
        <time>2019-10-06T09:53:40.001Z</time>
      </trkpt>
      <trkpt lat="45.70866" lon="5.52771">
        <ele>210.781</ele>
        <time>2019-10-06T09:54:10.001Z</time>
      </trkpt>
      <trkpt lat="45.70997" lon="5.5273">
        <ele>210.891</ele>
        <time>2019-10-06T09:54:40.001Z</time>
      </trkpt>
      <trkpt lat="45.71145" lon="5.52831">
        <ele>205.872</ele>
        <time>2019-10-06T09:55:10.001Z</time>
      </trkpt>
      <trkpt lat="45.71169" lon="5.53011">
        <ele>206.459</ele>
        <time>2019-10-06T09:55:40.001Z</time>
      </trkpt>
      <trkpt lat="45.71086" lon="5.53186">
        <ele>213.001</ele>
        <time>2019-10-06T09:56:10.001Z</time>
      </trkpt>
      <trkpt lat="45.71095" lon="5.53316">
        <ele>216.508</ele>
        <time>2019-10-06T09:56:40.001Z</time>
      </trkpt>
      <trkpt lat="45.71259" lon="5.53405">
        <ele>208.02</ele>
        <time>2019-10-06T09:57:13.001Z</time>
      </trkpt>
      <trkpt lat="45.71295" lon="5.53581">
        <ele>211.446</ele>
        <time>2019-10-06T09:57:43.001Z</time>
      </trkpt>
      <trkpt lat="45.71304" lon="5.53799">
        <ele>209.965</ele>
        <time>2019-10-06T09:58:13.001Z</time>
      </trkpt>
      <trkpt lat="45.71304" lon="5.54015">
        <ele>211.304</ele>
        <time>2019-10-06T09:58:43.001Z</time>
      </trkpt>
      <trkpt lat="45.71292" lon="5.54234">
        <ele>212.73</ele>
        <time>2019-10-06T09:59:13.001Z</time>
      </trkpt>
      <trkpt lat="45.71263" lon="5.54448">
        <ele>214.878</ele>
        <time>2019-10-06T09:59:43.001Z</time>
      </trkpt>
      <trkpt lat="45.71179" lon="5.5463">
        <ele>215.221</ele>
        <time>2019-10-06T10:00:13.001Z</time>
      </trkpt>
      <trkpt lat="45.71069" lon="5.54713">
        <ele>213.192</ele>
        <time>2019-10-06T10:00:46.001Z</time>
      </trkpt>
      <trkpt lat="45.71122" lon="5.5477">
        <ele>216.53</ele>
        <time>2019-10-06T10:01:16Z</time>
      </trkpt>
      <trkpt lat="45.71154" lon="5.54795">
        <ele>212.727</ele>
        <time>2019-10-06T10:02:19.001Z</time>
      </trkpt>
      <trkpt lat="45.71159" lon="5.548">
        <ele>210.84</ele>
        <time>2019-10-06T10:03:16Z</time>
      </trkpt>
      <trkpt lat="45.71135" lon="5.54785">
        <ele>210.053</ele>
        <time>2019-10-06T10:04:52.001Z</time>
      </trkpt>
      <trkpt lat="45.71208" lon="5.54838">
        <ele>215.891</ele>
        <time>2019-10-06T10:06:16Z</time>
      </trkpt>
      <trkpt lat="45.71304" lon="5.54912">
        <ele>215.573</ele>
        <time>2019-10-06T10:06:46.001Z</time>
      </trkpt>
      <trkpt lat="45.71285" lon="5.55088">
        <ele>214.795</ele>
        <time>2019-10-06T10:07:16Z</time>
      </trkpt>
      <trkpt lat="45.71188" lon="5.55142">
        <ele>210.74</ele>
        <time>2019-10-06T10:07:49.001Z</time>
      </trkpt>
      <trkpt lat="45.71086" lon="5.5525">
        <ele>208.598</ele>
        <time>2019-10-06T10:08:19.001Z</time>
      </trkpt>
      <trkpt lat="45.70978" lon="5.55378">
        <ele>208.268</ele>
        <time>2019-10-06T10:08:49.001Z</time>
      </trkpt>
      <trkpt lat="45.70882" lon="5.55479">
        <ele>208.542</ele>
        <time>2019-10-06T10:09:19.001Z</time>
      </trkpt>
      <trkpt lat="45.70759" lon="5.55538">
        <ele>211.659</ele>
        <time>2019-10-06T10:09:49.001Z</time>
      </trkpt>
      <trkpt lat="45.70623" lon="5.55556">
        <ele>211.75</ele>
        <time>2019-10-06T10:10:19.001Z</time>
      </trkpt>
      <trkpt lat="45.70467" lon="5.55575">
        <ele>208.392</ele>
        <time>2019-10-06T10:10:49.001Z</time>
      </trkpt>
      <trkpt lat="45.70305" lon="5.55513">
        <ele>207.808</ele>
        <time>2019-10-06T10:11:22.001Z</time>
      </trkpt>
      <trkpt lat="45.7016" lon="5.5544">
        <ele>208.035</ele>
        <time>2019-10-06T10:11:52.001Z</time>
      </trkpt>
      <trkpt lat="45.70017" lon="5.55396">
        <ele>207.43</ele>
        <time>2019-10-06T10:12:22.001Z</time>
      </trkpt>
      <trkpt lat="45.6986" lon="5.55341">
        <ele>207.187</ele>
        <time>2019-10-06T10:12:52.001Z</time>
      </trkpt>
      <trkpt lat="45.69759" lon="5.5549">
        <ele>204.783</ele>
        <time>2019-10-06T10:13:22.001Z</time>
      </trkpt>
      <trkpt lat="45.69676" lon="5.55652">
        <ele>207.137</ele>
        <time>2019-10-06T10:13:52.001Z</time>
      </trkpt>
      <trkpt lat="45.69527" lon="5.55654">
        <ele>208.735</ele>
        <time>2019-10-06T10:14:22.001Z</time>
      </trkpt>
      <trkpt lat="45.6939" lon="5.55772">
        <ele>210.394</ele>
        <time>2019-10-06T10:14:55.001Z</time>
      </trkpt>
      <trkpt lat="45.69267" lon="5.55856">
        <ele>205.561</ele>
        <time>2019-10-06T10:15:25.001Z</time>
      </trkpt>
      <trkpt lat="45.69109" lon="5.55852">
        <ele>206.775</ele>
        <time>2019-10-06T10:15:55.001Z</time>
      </trkpt>
      <trkpt lat="45.68959" lon="5.55882">
        <ele>208.402</ele>
        <time>2019-10-06T10:16:25.001Z</time>
      </trkpt>
      <trkpt lat="45.68818" lon="5.55947">
        <ele>206.509</ele>
        <time>2019-10-06T10:16:55.001Z</time>
      </trkpt>
      <trkpt lat="45.68683" lon="5.56022">
        <ele>208.171</ele>
        <time>2019-10-06T10:17:25.001Z</time>
      </trkpt>
      <trkpt lat="45.68584" lon="5.56139">
        <ele>209.447</ele>
        <time>2019-10-06T10:17:55.001Z</time>
      </trkpt>
      <trkpt lat="45.68453" lon="5.56284">
        <ele>207.073</ele>
        <time>2019-10-06T10:18:28.001Z</time>
      </trkpt>
      <trkpt lat="45.68395" lon="5.56457">
        <ele>206.513</ele>
        <time>2019-10-06T10:18:58.001Z</time>
      </trkpt>
      <trkpt lat="45.68353" lon="5.56636">
        <ele>207.91</ele>
        <time>2019-10-06T10:19:28.001Z</time>
      </trkpt>
      <trkpt lat="45.68285" lon="5.56765">
        <ele>207.937</ele>
        <time>2019-10-06T10:19:58.001Z</time>
      </trkpt>
      <trkpt lat="45.68169" lon="5.56856">
        <ele>209.468</ele>
        <time>2019-10-06T10:20:28.001Z</time>
      </trkpt>
      <trkpt lat="45.68061" lon="5.56962">
        <ele>209.817</ele>
        <time>2019-10-06T10:20:58.001Z</time>
      </trkpt>
      <trkpt lat="45.67926" lon="5.57012">
        <ele>216.961</ele>
        <time>2019-10-06T10:21:28.001Z</time>
      </trkpt>
      <trkpt lat="45.67775" lon="5.56978">
        <ele>220.565</ele>
        <time>2019-10-06T10:22:01.001Z</time>
      </trkpt>
      <trkpt lat="45.67627" lon="5.56986">
        <ele>212.218</ele>
        <time>2019-10-06T10:22:31.001Z</time>
      </trkpt>
      <trkpt lat="45.6755" lon="5.57092">
        <ele>208.571</ele>
        <time>2019-10-06T10:23:01.001Z</time>
      </trkpt>
      <trkpt lat="45.67501" lon="5.57146">
        <ele>215.527</ele>
        <time>2019-10-06T10:23:31.001Z</time>
      </trkpt>
      <trkpt lat="45.67451" lon="5.57195">
        <ele>222.631</ele>
        <time>2019-10-06T10:24:01.001Z</time>
      </trkpt>
      <trkpt lat="45.67402" lon="5.57274">
        <ele>225.608</ele>
        <time>2019-10-06T10:24:31.001Z</time>
      </trkpt>
      <trkpt lat="45.67395" lon="5.57397">
        <ele>230.963</ele>
        <time>2019-10-06T10:25:01.001Z</time>
      </trkpt>
      <trkpt lat="45.67299" lon="5.57643">
        <ele>225.253</ele>
        <time>2019-10-06T10:25:34.001Z</time>
      </trkpt>
      <trkpt lat="45.67176" lon="5.57562">
        <ele>223.356</ele>
        <time>2019-10-06T10:26:04.001Z</time>
      </trkpt>
      <trkpt lat="45.67084" lon="5.57536">
        <ele>213.265</ele>
        <time>2019-10-06T10:26:34.001Z</time>
      </trkpt>
      <trkpt lat="45.67031" lon="5.57694">
        <ele>207.026</ele>
        <time>2019-10-06T10:27:04.001Z</time>
      </trkpt>
      <trkpt lat="45.66972" lon="5.57881">
        <ele>207.17</ele>
        <time>2019-10-06T10:27:34.001Z</time>
      </trkpt>
      <trkpt lat="45.66929" lon="5.58071">
        <ele>208.558</ele>
        <time>2019-10-06T10:28:04.001Z</time>
      </trkpt>
      <trkpt lat="45.66905" lon="5.58247">
        <ele>213.765</ele>
        <time>2019-10-06T10:28:34.001Z</time>
      </trkpt>
      <trkpt lat="45.66834" lon="5.58454">
        <ele>210.435</ele>
        <time>2019-10-06T10:29:04.001Z</time>
      </trkpt>
      <trkpt lat="45.66756" lon="5.58659">
        <ele>211.432</ele>
        <time>2019-10-06T10:29:37.001Z</time>
      </trkpt>
      <trkpt lat="45.66645" lon="5.58807">
        <ele>210.932</ele>
        <time>2019-10-06T10:30:07.001Z</time>
      </trkpt>
      <trkpt lat="45.66524" lon="5.5893">
        <ele>207.267</ele>
        <time>2019-10-06T10:30:37.001Z</time>
      </trkpt>
      <trkpt lat="45.66389" lon="5.59019">
        <ele>204.142</ele>
        <time>2019-10-06T10:31:07.001Z</time>
      </trkpt>
      <trkpt lat="45.66257" lon="5.59125">
        <ele>203.951</ele>
        <time>2019-10-06T10:31:37.001Z</time>
      </trkpt>
      <trkpt lat="45.66142" lon="5.59272">
        <ele>210.166</ele>
        <time>2019-10-06T10:32:07.001Z</time>
      </trkpt>
      <trkpt lat="45.66064" lon="5.59463">
        <ele>214.523</ele>
        <time>2019-10-06T10:32:37.001Z</time>
      </trkpt>
      <trkpt lat="45.66016" lon="5.59697">
        <ele>218.88</ele>
        <time>2019-10-06T10:33:10.001Z</time>
      </trkpt>
      <trkpt lat="45.65962" lon="5.59911">
        <ele>216.463</ele>
        <time>2019-10-06T10:33:40.001Z</time>
      </trkpt>
      <trkpt lat="45.65883" lon="5.60086">
        <ele>211.665</ele>
        <time>2019-10-06T10:34:10.001Z</time>
      </trkpt>
      <trkpt lat="45.65781" lon="5.60234">
        <ele>206.529</ele>
        <time>2019-10-06T10:34:40.001Z</time>
      </trkpt>
      <trkpt lat="45.65671" lon="5.6037">
        <ele>202.939</ele>
        <time>2019-10-06T10:35:10.001Z</time>
      </trkpt>
      <trkpt lat="45.65599" lon="5.6049">
        <ele>209.96</ele>
        <time>2019-10-06T10:35:40.001Z</time>
      </trkpt>
      <trkpt lat="45.65533" lon="5.60544">
        <ele>209.13</ele>
        <time>2019-10-06T10:39:19.001Z</time>
      </trkpt>
      <trkpt lat="45.65449" lon="5.60515">
        <ele>214.255</ele>
        <time>2019-10-06T10:39:52.001Z</time>
      </trkpt>
      <trkpt lat="45.65403" lon="5.60356">
        <ele>216.331</ele>
        <time>2019-10-06T10:40:22.001Z</time>
      </trkpt>
      <trkpt lat="45.65338" lon="5.60291">
        <ele>214.412</ele>
        <time>2019-10-06T10:40:52.001Z</time>
      </trkpt>
      <trkpt lat="45.65252" lon="5.60372">
        <ele>216.47</ele>
        <time>2019-10-06T10:41:22.001Z</time>
      </trkpt>
      <trkpt lat="45.65163" lon="5.60445">
        <ele>211.677</ele>
        <time>2019-10-06T10:41:52.001Z</time>
      </trkpt>
      <trkpt lat="45.65071" lon="5.60531">
        <ele>210.201</ele>
        <time>2019-10-06T10:42:22.001Z</time>
      </trkpt>
      <trkpt lat="45.64975" lon="5.60608">
        <ele>215.857</ele>
        <time>2019-10-06T10:42:52.001Z</time>
      </trkpt>
      <trkpt lat="45.64839" lon="5.60693">
        <ele>215.283</ele>
        <time>2019-10-06T10:43:25.001Z</time>
      </trkpt>
      <trkpt lat="45.64706" lon="5.60778">
        <ele>214.311</ele>
        <time>2019-10-06T10:43:55.001Z</time>
      </trkpt>
      <trkpt lat="45.64566" lon="5.60865">
        <ele>215.562</ele>
        <time>2019-10-06T10:44:25.001Z</time>
      </trkpt>
      <trkpt lat="45.64431" lon="5.60948">
        <ele>214.996</ele>
        <time>2019-10-06T10:44:55.001Z</time>
      </trkpt>
      <trkpt lat="45.64295" lon="5.61031">
        <ele>218.974</ele>
        <time>2019-10-06T10:45:25.001Z</time>
      </trkpt>
      <trkpt lat="45.64163" lon="5.61117">
        <ele>215.719</ele>
        <time>2019-10-06T10:45:55.001Z</time>
      </trkpt>
      <trkpt lat="45.6404" lon="5.61226">
        <ele>216.575</ele>
        <time>2019-10-06T10:46:25.001Z</time>
      </trkpt>
      <trkpt lat="45.63928" lon="5.61386">
        <ele>215.194</ele>
        <time>2019-10-06T10:46:58.001Z</time>
      </trkpt>
      <trkpt lat="45.63848" lon="5.61558">
        <ele>213.576</ele>
        <time>2019-10-06T10:47:28.001Z</time>
      </trkpt>
      <trkpt lat="45.63797" lon="5.61729">
        <ele>217.487</ele>
        <time>2019-10-06T10:47:58.001Z</time>
      </trkpt>
      <trkpt lat="45.63775" lon="5.61897">
        <ele>217.165</ele>
        <time>2019-10-06T10:48:28.001Z</time>
      </trkpt>
      <trkpt lat="45.63773" lon="5.62099">
        <ele>218.409</ele>
        <time>2019-10-06T10:48:58.001Z</time>
      </trkpt>
      <trkpt lat="45.63724" lon="5.62208">
        <ele>220.209</ele>
        <time>2019-10-06T10:49:28.001Z</time>
      </trkpt>
      <trkpt lat="45.63693" lon="5.62263">
        <ele>224.832</ele>
        <time>2019-10-06T10:49:58.001Z</time>
      </trkpt>
      <trkpt lat="45.63798" lon="5.62289">
        <ele>229.579</ele>
        <time>2019-10-06T10:50:31.001Z</time>
      </trkpt>
      <trkpt lat="45.63916" lon="5.62324">
        <ele>229.507</ele>
        <time>2019-10-06T10:51:01.001Z</time>
      </trkpt>
      <trkpt lat="45.64036" lon="5.62433">
        <ele>228.057</ele>
        <time>2019-10-06T10:51:31.001Z</time>
      </trkpt>
      <trkpt lat="45.64133" lon="5.62567">
        <ele>232.033</ele>
        <time>2019-10-06T10:52:01.001Z</time>
      </trkpt>
      <trkpt lat="45.64134" lon="5.62781">
        <ele>234.657</ele>
        <time>2019-10-06T10:52:31.001Z</time>
      </trkpt>
      <trkpt lat="45.64105" lon="5.6301">
        <ele>225.527</ele>
        <time>2019-10-06T10:53:01.001Z</time>
      </trkpt>
      <trkpt lat="45.6407" lon="5.63204">
        <ele>218.525</ele>
        <time>2019-10-06T10:53:31.001Z</time>
      </trkpt>
      <trkpt lat="45.64049" lon="5.63434">
        <ele>214.053</ele>
        <time>2019-10-06T10:54:01.001Z</time>
      </trkpt>
      <trkpt lat="45.64071" lon="5.6368">
        <ele>216.737</ele>
        <time>2019-10-06T10:54:34.001Z</time>
      </trkpt>
      <trkpt lat="45.64076" lon="5.63764">
        <ele>218.691</ele>
        <time>2019-10-06T10:55:28.001Z</time>
      </trkpt>
      <trkpt lat="45.64082" lon="5.63951">
        <ele>222.781</ele>
        <time>2019-10-06T10:55:58.001Z</time>
      </trkpt>
      <trkpt lat="45.6407" lon="5.64171">
        <ele>215.388</ele>
        <time>2019-10-06T10:56:28.001Z</time>
      </trkpt>
      <trkpt lat="45.6399" lon="5.64281">
        <ele>215.544</ele>
        <time>2019-10-06T10:56:58.001Z</time>
      </trkpt>
      <trkpt lat="45.6401" lon="5.64462">
        <ele>217.069</ele>
        <time>2019-10-06T10:57:28.001Z</time>
      </trkpt>
      <trkpt lat="45.63985" lon="5.64663">
        <ele>215.465</ele>
        <time>2019-10-06T10:57:58.001Z</time>
      </trkpt>
      <trkpt lat="45.63954" lon="5.64804">
        <ele>218.023</ele>
        <time>2019-10-06T11:00:19.001Z</time>
      </trkpt>
      <trkpt lat="45.64011" lon="5.64793">
        <ele>220.701</ele>
        <time>2019-10-06T11:00:52.001Z</time>
      </trkpt>
      <trkpt lat="45.64005" lon="5.6467">
        <ele>221.793</ele>
        <time>2019-10-06T11:01:25.001Z</time>
      </trkpt>
      <trkpt lat="45.6404" lon="5.64471">
        <ele>218.214</ele>
        <time>2019-10-06T11:01:55.001Z</time>
      </trkpt>
      <trkpt lat="45.64029" lon="5.64315">
        <ele>223.619</ele>
        <time>2019-10-06T11:02:25.001Z</time>
      </trkpt>
      <trkpt lat="45.63957" lon="5.64264">
        <ele>226.957</ele>
        <time>2019-10-06T11:02:55.001Z</time>
      </trkpt>
      <trkpt lat="45.63867" lon="5.64192">
        <ele>222.45</ele>
        <time>2019-10-06T11:03:28.001Z</time>
      </trkpt>
      <trkpt lat="45.63851" lon="5.64296">
        <ele>216.267</ele>
        <time>2019-10-06T11:04:01.001Z</time>
      </trkpt>
      <trkpt lat="45.63765" lon="5.6418">
        <ele>217.907</ele>
        <time>2019-10-06T11:04:31.001Z</time>
      </trkpt>
      <trkpt lat="45.6364" lon="5.64107">
        <ele>221.374</ele>
        <time>2019-10-06T11:05:01.001Z</time>
      </trkpt>
      <trkpt lat="45.63612" lon="5.64113">
        <ele>215.845</ele>
        <time>2019-10-06T11:06:19.001Z</time>
      </trkpt>
      <trkpt lat="45.63607" lon="5.64108">
        <ele>216.813</ele>
        <time>2019-10-06T11:07:16Z</time>
      </trkpt>
      <trkpt lat="45.63614" lon="5.64118">
        <ele>214.555</ele>
        <time>2019-10-06T11:08:34.001Z</time>
      </trkpt>
      <trkpt lat="45.63614" lon="5.64117">
        <ele>214.593</ele>
        <time>2019-10-06T11:09:58.001Z</time>
      </trkpt>
      <trkpt lat="45.63613" lon="5.64116">
        <ele>214.912</ele>
        <time>2019-10-06T11:12:49.001Z</time>
      </trkpt>
      <trkpt lat="45.63619" lon="5.64117">
        <ele>214.805</ele>
        <time>2019-10-06T11:16:01.001Z</time>
      </trkpt>
      <trkpt lat="45.6367" lon="5.64166">
        <ele>216.082</ele>
        <time>2019-10-06T11:17:10.001Z</time>
      </trkpt>
      <trkpt lat="45.63702" lon="5.64217">
        <ele>214.623</ele>
        <time>2019-10-06T11:18:16Z</time>
      </trkpt>
      <trkpt lat="45.63699" lon="5.64209">
        <ele>214.424</ele>
        <time>2019-10-06T11:19:58.001Z</time>
      </trkpt>
      <trkpt lat="45.637" lon="5.6421">
        <ele>214.742</ele>
        <time>2019-10-06T11:22:46.001Z</time>
      </trkpt>
      <trkpt lat="45.637" lon="5.6421">
        <ele>214.742</ele>
        <time>2019-10-06T11:28:22.001Z</time>
      </trkpt>
      <trkpt lat="45.63701" lon="5.6421">
        <ele>214.755</ele>
        <time>2019-10-06T11:44:34.001Z</time>
      </trkpt>
      <trkpt lat="45.637" lon="5.6421">
        <ele>215.546</ele>
        <time>2019-10-06T11:48:01.001Z</time>
      </trkpt>
      <trkpt lat="45.63666" lon="5.64162">
        <ele>218.393</ele>
        <time>2019-10-06T11:51:31.001Z</time>
      </trkpt>
      <trkpt lat="45.63604" lon="5.64114">
        <ele>217.947</ele>
        <time>2019-10-06T11:52:01.001Z</time>
      </trkpt>
      <trkpt lat="45.63517" lon="5.64153">
        <ele>218.172</ele>
        <time>2019-10-06T11:52:31.001Z</time>
      </trkpt>
      <trkpt lat="45.63453" lon="5.64291">
        <ele>223.165</ele>
        <time>2019-10-06T11:53:01.001Z</time>
      </trkpt>
      <trkpt lat="45.63412" lon="5.64481">
        <ele>221.626</ele>
        <time>2019-10-06T11:53:31.001Z</time>
      </trkpt>
      <trkpt lat="45.63422" lon="5.64711">
        <ele>216.862</ele>
        <time>2019-10-06T11:54:01.001Z</time>
      </trkpt>
      <trkpt lat="45.63561" lon="5.64907">
        <ele>212.015</ele>
        <time>2019-10-06T11:54:34.001Z</time>
      </trkpt>
      <trkpt lat="45.63667" lon="5.65058">
        <ele>214.195</ele>
        <time>2019-10-06T11:55:04.001Z</time>
      </trkpt>
      <trkpt lat="45.63731" lon="5.65236">
        <ele>212.229</ele>
        <time>2019-10-06T11:55:34.001Z</time>
      </trkpt>
      <trkpt lat="45.6367" lon="5.65354">
        <ele>216.365</ele>
        <time>2019-10-06T11:56:04.001Z</time>
      </trkpt>
      <trkpt lat="45.63586" lon="5.65408">
        <ele>218.591</ele>
        <time>2019-10-06T11:56:34.001Z</time>
      </trkpt>
      <trkpt lat="45.63488" lon="5.65554">
        <ele>219.257</ele>
        <time>2019-10-06T11:57:04.001Z</time>
      </trkpt>
      <trkpt lat="45.63325" lon="5.65521">
        <ele>213.412</ele>
        <time>2019-10-06T11:57:34.001Z</time>
      </trkpt>
      <trkpt lat="45.6318" lon="5.65426">
        <ele>214.482</ele>
        <time>2019-10-06T11:58:07.001Z</time>
      </trkpt>
      <trkpt lat="45.63042" lon="5.6535">
        <ele>216.524</ele>
        <time>2019-10-06T11:58:37.001Z</time>
      </trkpt>
      <trkpt lat="45.62884" lon="5.65341">
        <ele>214.761</ele>
        <time>2019-10-06T11:59:07.001Z</time>
      </trkpt>
      <trkpt lat="45.62745" lon="5.65274">
        <ele>213.935</ele>
        <time>2019-10-06T11:59:37.001Z</time>
      </trkpt>
      <trkpt lat="45.6262" lon="5.65182">
        <ele>213.432</ele>
        <time>2019-10-06T12:00:07.001Z</time>
      </trkpt>
      <trkpt lat="45.62543" lon="5.65109">
        <ele>214.886</ele>
        <time>2019-10-06T12:00:40.001Z</time>
      </trkpt>
      <trkpt lat="45.62602" lon="5.65169">
        <ele>212.786</ele>
        <time>2019-10-06T12:01:55.001Z</time>
      </trkpt>
      <trkpt lat="45.62739" lon="5.65272">
        <ele>213.117</ele>
        <time>2019-10-06T12:02:28.001Z</time>
      </trkpt>
      <trkpt lat="45.62872" lon="5.65337">
        <ele>211.079</ele>
        <time>2019-10-06T12:02:58.001Z</time>
      </trkpt>
      <trkpt lat="45.63004" lon="5.65347">
        <ele>212.414</ele>
        <time>2019-10-06T12:03:28.001Z</time>
      </trkpt>
      <trkpt lat="45.63083" lon="5.65425">
        <ele>215.718</ele>
        <time>2019-10-06T12:03:58.001Z</time>
      </trkpt>
      <trkpt lat="45.63184" lon="5.65548">
        <ele>210.728</ele>
        <time>2019-10-06T12:04:28.001Z</time>
      </trkpt>
      <trkpt lat="45.63188" lon="5.65559">
        <ele>210.657</ele>
        <time>2019-10-06T12:06:43.001Z</time>
      </trkpt>
      <trkpt lat="45.63089" lon="5.65459">
        <ele>212.212</ele>
        <time>2019-10-06T12:07:13.001Z</time>
      </trkpt>
      <trkpt lat="45.63162" lon="5.65415">
        <ele>215.789</ele>
        <time>2019-10-06T12:07:46.001Z</time>
      </trkpt>
      <trkpt lat="45.6329" lon="5.65501">
        <ele>216.768</ele>
        <time>2019-10-06T12:08:16Z</time>
      </trkpt>
      <trkpt lat="45.63417" lon="5.65592">
        <ele>215.092</ele>
        <time>2019-10-06T12:08:46.001Z</time>
      </trkpt>
      <trkpt lat="45.6354" lon="5.65719">
        <ele>213.667</ele>
        <time>2019-10-06T12:09:16Z</time>
      </trkpt>
      <trkpt lat="45.63655" lon="5.65868">
        <ele>210.758</ele>
        <time>2019-10-06T12:09:46.001Z</time>
      </trkpt>
      <trkpt lat="45.63683" lon="5.66078">
        <ele>211.123</ele>
        <time>2019-10-06T12:10:16Z</time>
      </trkpt>
      <trkpt lat="45.63677" lon="5.66296">
        <ele>211.341</ele>
        <time>2019-10-06T12:10:46.001Z</time>
      </trkpt>
      <trkpt lat="45.6367" lon="5.66535">
        <ele>211.557</ele>
        <time>2019-10-06T12:11:19.002Z</time>
      </trkpt>
      <trkpt lat="45.63664" lon="5.66754">
        <ele>210.493</ele>
        <time>2019-10-06T12:11:49.001Z</time>
      </trkpt>
      <trkpt lat="45.63657" lon="5.66972">
        <ele>210.404</ele>
        <time>2019-10-06T12:12:19.001Z</time>
      </trkpt>
      <trkpt lat="45.63651" lon="5.67201">
        <ele>212.015</ele>
        <time>2019-10-06T12:12:49.001Z</time>
      </trkpt>
      <trkpt lat="45.63647" lon="5.67425">
        <ele>215.129</ele>
        <time>2019-10-06T12:13:19.001Z</time>
      </trkpt>
      <trkpt lat="45.63652" lon="5.67646">
        <ele>211.359</ele>
        <time>2019-10-06T12:13:49.001Z</time>
      </trkpt>
      <trkpt lat="45.63718" lon="5.67754">
        <ele>215.839</ele>
        <time>2019-10-06T12:14:19.001Z</time>
      </trkpt>
      <trkpt lat="45.63775" lon="5.67949">
        <ele>217.514</ele>
        <time>2019-10-06T12:14:52.001Z</time>
      </trkpt>
      <trkpt lat="45.63831" lon="5.68142">
        <ele>216.937</ele>
        <time>2019-10-06T12:15:22.001Z</time>
      </trkpt>
      <trkpt lat="45.63826" lon="5.68348">
        <ele>212.84</ele>
        <time>2019-10-06T12:15:52.001Z</time>
      </trkpt>
      <trkpt lat="45.63848" lon="5.68549">
        <ele>212.075</ele>
        <time>2019-10-06T12:16:22.001Z</time>
      </trkpt>
      <trkpt lat="45.6392" lon="5.68722">
        <ele>213.364</ele>
        <time>2019-10-06T12:16:52.001Z</time>
      </trkpt>
      <trkpt lat="45.64032" lon="5.68892">
        <ele>213.081</ele>
        <time>2019-10-06T12:17:22.001Z</time>
      </trkpt>
      <trkpt lat="45.64156" lon="5.69027">
        <ele>216.091</ele>
        <time>2019-10-06T12:17:52.001Z</time>
      </trkpt>
      <trkpt lat="45.64299" lon="5.69123">
        <ele>214.625</ele>
        <time>2019-10-06T12:18:22.001Z</time>
      </trkpt>
      <trkpt lat="45.6442" lon="5.69282">
        <ele>215.511</ele>
        <time>2019-10-06T12:18:55.001Z</time>
      </trkpt>
      <trkpt lat="45.6457" lon="5.69285">
        <ele>216.834</ele>
        <time>2019-10-06T12:19:25.001Z</time>
      </trkpt>
      <trkpt lat="45.64717" lon="5.6931">
        <ele>210.65</ele>
        <time>2019-10-06T12:19:55.001Z</time>
      </trkpt>
      <trkpt lat="45.6485" lon="5.69207">
        <ele>211.45</ele>
        <time>2019-10-06T12:20:25.001Z</time>
      </trkpt>
      <trkpt lat="45.64983" lon="5.69131">
        <ele>213.693</ele>
        <time>2019-10-06T12:20:55.001Z</time>
      </trkpt>
      <trkpt lat="45.65137" lon="5.69093">
        <ele>214.274</ele>
        <time>2019-10-06T12:21:25.001Z</time>
      </trkpt>
      <trkpt lat="45.65199" lon="5.69009">
        <ele>217.654</ele>
        <time>2019-10-06T12:21:55.001Z</time>
      </trkpt>
      <trkpt lat="45.65346" lon="5.68952">
        <ele>216.446</ele>
        <time>2019-10-06T12:22:28.001Z</time>
      </trkpt>
      <trkpt lat="45.65495" lon="5.68892">
        <ele>216.355</ele>
        <time>2019-10-06T12:22:58.001Z</time>
      </trkpt>
      <trkpt lat="45.65646" lon="5.6883">
        <ele>216.314</ele>
        <time>2019-10-06T12:23:28.001Z</time>
      </trkpt>
      <trkpt lat="45.65801" lon="5.68767">
        <ele>216.38</ele>
        <time>2019-10-06T12:23:58.001Z</time>
      </trkpt>
      <trkpt lat="45.65955" lon="5.68705">
        <ele>215.33</ele>
        <time>2019-10-06T12:24:28.001Z</time>
      </trkpt>
      <trkpt lat="45.66115" lon="5.68641">
        <ele>215.772</ele>
        <time>2019-10-06T12:24:58.001Z</time>
      </trkpt>
      <trkpt lat="45.66163" lon="5.6881">
        <ele>216.514</ele>
        <time>2019-10-06T12:25:28.001Z</time>
      </trkpt>
      <trkpt lat="45.66236" lon="5.68876">
        <ele>212.363</ele>
        <time>2019-10-06T12:26:01.001Z</time>
      </trkpt>
      <trkpt lat="45.66355" lon="5.68743">
        <ele>213.661</ele>
        <time>2019-10-06T12:26:31.001Z</time>
      </trkpt>
      <trkpt lat="45.66495" lon="5.68738">
        <ele>214.598</ele>
        <time>2019-10-06T12:27:01.001Z</time>
      </trkpt>
      <trkpt lat="45.6662" lon="5.68854">
        <ele>213.818</ele>
        <time>2019-10-06T12:27:31.001Z</time>
      </trkpt>
      <trkpt lat="45.66726" lon="5.69019">
        <ele>215.293</ele>
        <time>2019-10-06T12:28:01.001Z</time>
      </trkpt>
      <trkpt lat="45.66816" lon="5.69198">
        <ele>216.916</ele>
        <time>2019-10-06T12:28:31.001Z</time>
      </trkpt>
      <trkpt lat="45.669" lon="5.69367">
        <ele>215.48</ele>
        <time>2019-10-06T12:29:01.001Z</time>
      </trkpt>
      <trkpt lat="45.66956" lon="5.6947">
        <ele>218.082</ele>
        <time>2019-10-06T12:36:22.001Z</time>
      </trkpt>
      <trkpt lat="45.67034" lon="5.69604">
        <ele>217.249</ele>
        <time>2019-10-06T12:36:52.001Z</time>
      </trkpt>
      <trkpt lat="45.67126" lon="5.69738">
        <ele>217.694</ele>
        <time>2019-10-06T12:37:22.001Z</time>
      </trkpt>
      <trkpt lat="45.67232" lon="5.69868">
        <ele>216.763</ele>
        <time>2019-10-06T12:37:52.001Z</time>
      </trkpt>
      <trkpt lat="45.67346" lon="5.69992">
        <ele>217.99</ele>
        <time>2019-10-06T12:38:22.001Z</time>
      </trkpt>
      <trkpt lat="45.67456" lon="5.70045">
        <ele>219.514</ele>
        <time>2019-10-06T12:38:52.001Z</time>
      </trkpt>
      <trkpt lat="45.6756" lon="5.70182">
        <ele>218.109</ele>
        <time>2019-10-06T12:39:22.001Z</time>
      </trkpt>
      <trkpt lat="45.67665" lon="5.70352">
        <ele>219.363</ele>
        <time>2019-10-06T12:39:55.001Z</time>
      </trkpt>
      <trkpt lat="45.67757" lon="5.70507">
        <ele>217.996</ele>
        <time>2019-10-06T12:40:25.001Z</time>
      </trkpt>
      <trkpt lat="45.67865" lon="5.70654">
        <ele>220.305</ele>
        <time>2019-10-06T12:40:55.001Z</time>
      </trkpt>
      <trkpt lat="45.67993" lon="5.70737">
        <ele>221.984</ele>
        <time>2019-10-06T12:41:25.001Z</time>
      </trkpt>
      <trkpt lat="45.68138" lon="5.70833">
        <ele>217.779</ele>
        <time>2019-10-06T12:41:55.001Z</time>
      </trkpt>
      <trkpt lat="45.68298" lon="5.70891">
        <ele>216.759</ele>
        <time>2019-10-06T12:42:25.001Z</time>
      </trkpt>
      <trkpt lat="45.68432" lon="5.70929">
        <ele>216.668</ele>
        <time>2019-10-06T12:42:55.001Z</time>
      </trkpt>
      <trkpt lat="45.68497" lon="5.70972">
        <ele>220.325</ele>
        <time>2019-10-06T12:44:01.001Z</time>
      </trkpt>
      <trkpt lat="45.68621" lon="5.71042">
        <ele>224.453</ele>
        <time>2019-10-06T12:44:31.001Z</time>
      </trkpt>
      <trkpt lat="45.68745" lon="5.71103">
        <ele>222.644</ele>
        <time>2019-10-06T12:45:01.001Z</time>
      </trkpt>
      <trkpt lat="45.68923" lon="5.71173">
        <ele>218.878</ele>
        <time>2019-10-06T12:45:31.001Z</time>
      </trkpt>
      <trkpt lat="45.69092" lon="5.71257">
        <ele>213.854</ele>
        <time>2019-10-06T12:46:01.001Z</time>
      </trkpt>
      <trkpt lat="45.69151" lon="5.7107">
        <ele>214.304</ele>
        <time>2019-10-06T12:46:31.001Z</time>
      </trkpt>
      <trkpt lat="45.69283" lon="5.70978">
        <ele>217.486</ele>
        <time>2019-10-06T12:47:01.001Z</time>
      </trkpt>
      <trkpt lat="45.69423" lon="5.70983">
        <ele>220.855</ele>
        <time>2019-10-06T12:47:31.001Z</time>
      </trkpt>
      <trkpt lat="45.69593" lon="5.70974">
        <ele>221.164</ele>
        <time>2019-10-06T12:48:04.001Z</time>
      </trkpt>
      <trkpt lat="45.69716" lon="5.70841">
        <ele>216.988</ele>
        <time>2019-10-06T12:48:34.001Z</time>
      </trkpt>
      <trkpt lat="45.69835" lon="5.7074">
        <ele>218.743</ele>
        <time>2019-10-06T12:49:04.001Z</time>
      </trkpt>
      <trkpt lat="45.69891" lon="5.70537">
        <ele>218.637</ele>
        <time>2019-10-06T12:49:34.001Z</time>
      </trkpt>
      <trkpt lat="45.69977" lon="5.70354">
        <ele>219.636</ele>
        <time>2019-10-06T12:50:04.001Z</time>
      </trkpt>
      <trkpt lat="45.70119" lon="5.70253">
        <ele>219.639</ele>
        <time>2019-10-06T12:50:34.001Z</time>
      </trkpt>
      <trkpt lat="45.70257" lon="5.7015">
        <ele>220.531</ele>
        <time>2019-10-06T12:51:04.001Z</time>
      </trkpt>
      <trkpt lat="45.7045" lon="5.70131">
        <ele>219.515</ele>
        <time>2019-10-06T12:51:37.001Z</time>
      </trkpt>
      <trkpt lat="45.7061" lon="5.70086">
        <ele>220.185</ele>
        <time>2019-10-06T12:52:07.001Z</time>
      </trkpt>
      <trkpt lat="45.70776" lon="5.7006">
        <ele>220.505</ele>
        <time>2019-10-06T12:52:37.001Z</time>
      </trkpt>
      <trkpt lat="45.7082" lon="5.70167">
        <ele>226.694</ele>
        <time>2019-10-06T12:53:07.001Z</time>
      </trkpt>
      <trkpt lat="45.70895" lon="5.70259">
        <ele>223.105</ele>
        <time>2019-10-06T12:53:37.001Z</time>
      </trkpt>
      <trkpt lat="45.70961" lon="5.70425">
        <ele>220.26</ele>
        <time>2019-10-06T12:54:07.001Z</time>
      </trkpt>
      <trkpt lat="45.70985" lon="5.70658">
        <ele>221.573</ele>
        <time>2019-10-06T12:54:37.001Z</time>
      </trkpt>
      <trkpt lat="45.70961" lon="5.70906">
        <ele>218.136</ele>
        <time>2019-10-06T12:55:10.001Z</time>
      </trkpt>
      <trkpt lat="45.70911" lon="5.71113">
        <ele>221.915</ele>
        <time>2019-10-06T12:55:40.001Z</time>
      </trkpt>
      <trkpt lat="45.70843" lon="5.71315">
        <ele>223.189</ele>
        <time>2019-10-06T12:56:10.001Z</time>
      </trkpt>
      <trkpt lat="45.70775" lon="5.71515">
        <ele>220.816</ele>
        <time>2019-10-06T12:56:40.001Z</time>
      </trkpt>
      <trkpt lat="45.7073" lon="5.71723">
        <ele>224.041</ele>
        <time>2019-10-06T12:57:10.001Z</time>
      </trkpt>
      <trkpt lat="45.70715" lon="5.71944">
        <ele>227.262</ele>
        <time>2019-10-06T12:57:40.001Z</time>
      </trkpt>
      <trkpt lat="45.70723" lon="5.7204">
        <ele>227.144</ele>
        <time>2019-10-06T12:58:13.001Z</time>
      </trkpt>
      <trkpt lat="45.70758" lon="5.72237">
        <ele>231.547</ele>
        <time>2019-10-06T12:58:46.001Z</time>
      </trkpt>
      <trkpt lat="45.70813" lon="5.7244">
        <ele>241.984</ele>
        <time>2019-10-06T12:59:16Z</time>
      </trkpt>
      <trkpt lat="45.70852" lon="5.72601">
        <ele>246.88</ele>
        <time>2019-10-06T12:59:46.001Z</time>
      </trkpt>
      <trkpt lat="45.70866" lon="5.72752">
        <ele>255.797</ele>
        <time>2019-10-06T13:00:16Z</time>
      </trkpt>
      <trkpt lat="45.70933" lon="5.72978">
        <ele>254.244</ele>
        <time>2019-10-06T13:00:46.001Z</time>
      </trkpt>
      <trkpt lat="45.70897" lon="5.73221">
        <ele>242.356</ele>
        <time>2019-10-06T13:01:16Z</time>
      </trkpt>
      <trkpt lat="45.70843" lon="5.73422">
        <ele>251.308</ele>
        <time>2019-10-06T13:01:46.001Z</time>
      </trkpt>
      <trkpt lat="45.70702" lon="5.73609">
        <ele>237.544</ele>
        <time>2019-10-06T13:02:19.001Z</time>
      </trkpt>
      <trkpt lat="45.70609" lon="5.73802">
        <ele>237.397</ele>
        <time>2019-10-06T13:02:49.001Z</time>
      </trkpt>
      <trkpt lat="45.70612" lon="5.74129">
        <ele>245.337</ele>
        <time>2019-10-06T13:03:19.001Z</time>
      </trkpt>
      <trkpt lat="45.70568" lon="5.74324">
        <ele>234.785</ele>
        <time>2019-10-06T13:03:49.001Z</time>
      </trkpt>
      <trkpt lat="45.70565" lon="5.74383">
        <ele>238.888</ele>
        <time>2019-10-06T13:10:49.001Z</time>
      </trkpt>
      <trkpt lat="45.70516" lon="5.74615">
        <ele>239.389</ele>
        <time>2019-10-06T13:11:19.001Z</time>
      </trkpt>
      <trkpt lat="45.7048" lon="5.74848">
        <ele>234.641</ele>
        <time>2019-10-06T13:11:49.001Z</time>
      </trkpt>
      <trkpt lat="45.70534" lon="5.75082">
        <ele>229.56</ele>
        <time>2019-10-06T13:12:19.001Z</time>
      </trkpt>
      <trkpt lat="45.70534" lon="5.75356">
        <ele>227.719</ele>
        <time>2019-10-06T13:12:52.001Z</time>
      </trkpt>
      <trkpt lat="45.70573" lon="5.75618">
        <ele>225.977</ele>
        <time>2019-10-06T13:13:22.001Z</time>
      </trkpt>
      <trkpt lat="45.7061" lon="5.75878">
        <ele>228.065</ele>
        <time>2019-10-06T13:13:52.001Z</time>
      </trkpt>
      <trkpt lat="45.70616" lon="5.761">
        <ele>229.669</ele>
        <time>2019-10-06T13:14:22.001Z</time>
      </trkpt>
      <trkpt lat="45.70616" lon="5.76349">
        <ele>225.467</ele>
        <time>2019-10-06T13:14:52.001Z</time>
      </trkpt>
      <trkpt lat="45.70582" lon="5.76597">
        <ele>226.555</ele>
        <time>2019-10-06T13:15:22.001Z</time>
      </trkpt>
      <trkpt lat="45.7055" lon="5.7682">
        <ele>229.799</ele>
        <time>2019-10-06T13:15:52.001Z</time>
      </trkpt>
      <trkpt lat="45.70489" lon="5.77023">
        <ele>233.903</ele>
        <time>2019-10-06T13:16:25.001Z</time>
      </trkpt>
      <trkpt lat="45.70411" lon="5.77167">
        <ele>239.547</ele>
        <time>2019-10-06T13:16:55.001Z</time>
      </trkpt>
      <trkpt lat="45.70346" lon="5.77281">
        <ele>238.416</ele>
        <time>2019-10-06T13:17:25.001Z</time>
      </trkpt>
      <trkpt lat="45.70314" lon="5.77448">
        <ele>241.61</ele>
        <time>2019-10-06T13:17:55.001Z</time>
      </trkpt>
      <trkpt lat="45.70291" lon="5.77614">
        <ele>248.253</ele>
        <time>2019-10-06T13:18:25.001Z</time>
      </trkpt>
      <trkpt lat="45.70299" lon="5.77788">
        <ele>256.626</ele>
        <time>2019-10-06T13:18:55.001Z</time>
      </trkpt>
      <trkpt lat="45.70325" lon="5.7794">
        <ele>263.12</ele>
        <time>2019-10-06T13:19:25.001Z</time>
      </trkpt>
      <trkpt lat="45.7035" lon="5.78103">
        <ele>263.668</ele>
        <time>2019-10-06T13:19:58.001Z</time>
      </trkpt>
      <trkpt lat="45.7037" lon="5.78242">
        <ele>264.701</ele>
        <time>2019-10-06T13:20:28.001Z</time>
      </trkpt>
      <trkpt lat="45.70362" lon="5.78401">
        <ele>264.696</ele>
        <time>2019-10-06T13:20:58.001Z</time>
      </trkpt>
      <trkpt lat="45.7034" lon="5.78542">
        <ele>268.048</ele>
        <time>2019-10-06T13:21:28.001Z</time>
      </trkpt>
      <trkpt lat="45.70334" lon="5.78695">
        <ele>273.648</ele>
        <time>2019-10-06T13:21:58.001Z</time>
      </trkpt>
      <trkpt lat="45.70301" lon="5.78852">
        <ele>263.094</ele>
        <time>2019-10-06T13:22:28.001Z</time>
      </trkpt>
      <trkpt lat="45.70262" lon="5.78987">
        <ele>262.462</ele>
        <time>2019-10-06T13:22:58.001Z</time>
      </trkpt>
      <trkpt lat="45.7022" lon="5.79136">
        <ele>270.596</ele>
        <time>2019-10-06T13:23:31.001Z</time>
      </trkpt>
      <trkpt lat="45.70175" lon="5.79242">
        <ele>275.388</ele>
        <time>2019-10-06T13:24:01.001Z</time>
      </trkpt>
      <trkpt lat="45.70098" lon="5.79296">
        <ele>281.527</ele>
        <time>2019-10-06T13:24:31.001Z</time>
      </trkpt>
      <trkpt lat="45.70031" lon="5.79374">
        <ele>287.806</ele>
        <time>2019-10-06T13:25:01.001Z</time>
      </trkpt>
      <trkpt lat="45.69946" lon="5.79381">
        <ele>293.747</ele>
        <time>2019-10-06T13:25:31.001Z</time>
      </trkpt>
      <trkpt lat="45.69841" lon="5.79405">
        <ele>297.132</ele>
        <time>2019-10-06T13:26:01.001Z</time>
      </trkpt>
      <trkpt lat="45.69745" lon="5.79332">
        <ele>296.575</ele>
        <time>2019-10-06T13:26:31.001Z</time>
      </trkpt>
      <trkpt lat="45.69636" lon="5.79408">
        <ele>296.195</ele>
        <time>2019-10-06T13:27:04.001Z</time>
      </trkpt>
      <trkpt lat="45.69644" lon="5.79572">
        <ele>300.771</ele>
        <time>2019-10-06T13:27:34.001Z</time>
      </trkpt>
      <trkpt lat="45.69656" lon="5.79724">
        <ele>299.991</ele>
        <time>2019-10-06T13:28:04.001Z</time>
      </trkpt>
      <trkpt lat="45.69669" lon="5.7987">
        <ele>305.649</ele>
        <time>2019-10-06T13:28:34.001Z</time>
      </trkpt>
      <trkpt lat="45.6968" lon="5.80017">
        <ele>302.68</ele>
        <time>2019-10-06T13:29:04.001Z</time>
      </trkpt>
      <trkpt lat="45.69705" lon="5.80163">
        <ele>301.665</ele>
        <time>2019-10-06T13:29:34.001Z</time>
      </trkpt>
      <trkpt lat="45.69655" lon="5.803">
        <ele>298.905</ele>
        <time>2019-10-06T13:30:04.001Z</time>
      </trkpt>
      <trkpt lat="45.69587" lon="5.80438">
        <ele>303.739</ele>
        <time>2019-10-06T13:30:37.001Z</time>
      </trkpt>
      <trkpt lat="45.69528" lon="5.8055">
        <ele>309.997</ele>
        <time>2019-10-06T13:31:07.001Z</time>
      </trkpt>
      <trkpt lat="45.69465" lon="5.80666">
        <ele>317.023</ele>
        <time>2019-10-06T13:31:37.001Z</time>
      </trkpt>
      <trkpt lat="45.69405" lon="5.80778">
        <ele>313.358</ele>
        <time>2019-10-06T13:32:07.001Z</time>
      </trkpt>
      <trkpt lat="45.69353" lon="5.80879">
        <ele>315.717</ele>
        <time>2019-10-06T13:32:37.001Z</time>
      </trkpt>
      <trkpt lat="45.69293" lon="5.80992">
        <ele>314.736</ele>
        <time>2019-10-06T13:33:07.001Z</time>
      </trkpt>
      <trkpt lat="45.69225" lon="5.81125">
        <ele>315.097</ele>
        <time>2019-10-06T13:33:37.001Z</time>
      </trkpt>
      <trkpt lat="45.69152" lon="5.81266">
        <ele>316.588</ele>
        <time>2019-10-06T13:34:07.001Z</time>
      </trkpt>
      <trkpt lat="45.69078" lon="5.81414">
        <ele>322.854</ele>
        <time>2019-10-06T13:34:40.001Z</time>
      </trkpt>
      <trkpt lat="45.69034" lon="5.81509">
        <ele>320.415</ele>
        <time>2019-10-06T13:40:25.001Z</time>
      </trkpt>
      <trkpt lat="45.69032" lon="5.81627">
        <ele>323.537</ele>
        <time>2019-10-06T13:40:55.001Z</time>
      </trkpt>
      <trkpt lat="45.69051" lon="5.81767">
        <ele>326.796</ele>
        <time>2019-10-06T13:41:25.001Z</time>
      </trkpt>
      <trkpt lat="45.69049" lon="5.81905">
        <ele>328.969</ele>
        <time>2019-10-06T13:41:55.001Z</time>
      </trkpt>
      <trkpt lat="45.69019" lon="5.82001">
        <ele>333.648</ele>
        <time>2019-10-06T13:42:25.001Z</time>
      </trkpt>
      <trkpt lat="45.68981" lon="5.82085">
        <ele>339.242</ele>
        <time>2019-10-06T13:42:55.001Z</time>
      </trkpt>
      <trkpt lat="45.68932" lon="5.8218">
        <ele>344.192</ele>
        <time>2019-10-06T13:43:28.001Z</time>
      </trkpt>
      <trkpt lat="45.68889" lon="5.82267">
        <ele>345.412</ele>
        <time>2019-10-06T13:43:58.001Z</time>
      </trkpt>
      <trkpt lat="45.68877" lon="5.82368">
        <ele>350.378</ele>
        <time>2019-10-06T13:44:28.001Z</time>
      </trkpt>
      <trkpt lat="45.68901" lon="5.82467">
        <ele>353.713</ele>
        <time>2019-10-06T13:44:58.001Z</time>
      </trkpt>
      <trkpt lat="45.68951" lon="5.82546">
        <ele>360.163</ele>
        <time>2019-10-06T13:45:28.001Z</time>
      </trkpt>
      <trkpt lat="45.69029" lon="5.82586">
        <ele>362.673</ele>
        <time>2019-10-06T13:45:58.001Z</time>
      </trkpt>
      <trkpt lat="45.69088" lon="5.8265">
        <ele>366.015</ele>
        <time>2019-10-06T13:46:28.001Z</time>
      </trkpt>
      <trkpt lat="45.69131" lon="5.82755">
        <ele>368.292</ele>
        <time>2019-10-06T13:47:01.001Z</time>
      </trkpt>
      <trkpt lat="45.69162" lon="5.82851">
        <ele>376.101</ele>
        <time>2019-10-06T13:47:31.001Z</time>
      </trkpt>
      <trkpt lat="45.69212" lon="5.82918">
        <ele>389.179</ele>
        <time>2019-10-06T13:48:01.001Z</time>
      </trkpt>
      <trkpt lat="45.69293" lon="5.82946">
        <ele>390.05</ele>
        <time>2019-10-06T13:48:31.001Z</time>
      </trkpt>
      <trkpt lat="45.69342" lon="5.83008">
        <ele>385.984</ele>
        <time>2019-10-06T13:49:01.001Z</time>
      </trkpt>
      <trkpt lat="45.69321" lon="5.83109">
        <ele>386.085</ele>
        <time>2019-10-06T13:49:31.001Z</time>
      </trkpt>
      <trkpt lat="45.69288" lon="5.83198">
        <ele>391.046</ele>
        <time>2019-10-06T13:50:01.001Z</time>
      </trkpt>
      <trkpt lat="45.69197" lon="5.83219">
        <ele>395.679</ele>
        <time>2019-10-06T13:50:34.001Z</time>
      </trkpt>
      <trkpt lat="45.69114" lon="5.83211">
        <ele>398.143</ele>
        <time>2019-10-06T13:51:04.001Z</time>
      </trkpt>
      <trkpt lat="45.69029" lon="5.83232">
        <ele>393.141</ele>
        <time>2019-10-06T13:51:34.001Z</time>
      </trkpt>
      <trkpt lat="45.69057" lon="5.83318">
        <ele>395.545</ele>
        <time>2019-10-06T13:52:04.001Z</time>
      </trkpt>
      <trkpt lat="45.69083" lon="5.83434">
        <ele>398.729</ele>
        <time>2019-10-06T13:52:34.001Z</time>
      </trkpt>
      <trkpt lat="45.68502" lon="5.85309">
        <ele>401.828</ele>
        <time>2019-10-06T14:00:10.001Z</time>
      </trkpt>
      <trkpt lat="45.685" lon="5.85302">
        <ele>391.197</ele>
        <time>2019-10-06T14:04:40.001Z</time>
      </trkpt>
      <trkpt lat="45.68475" lon="5.85203">
        <ele>387.751</ele>
        <time>2019-10-06T14:05:13.001Z</time>
      </trkpt>
      <trkpt lat="45.68317" lon="5.85115">
        <ele>369.506</ele>
        <time>2019-10-06T14:05:43.001Z</time>
      </trkpt>
      <trkpt lat="45.68042" lon="5.85102">
        <ele>367.551</ele>
        <time>2019-10-06T14:06:13.001Z</time>
      </trkpt>
      <trkpt lat="45.67757" lon="5.85056">
        <ele>354.171</ele>
        <time>2019-10-06T14:06:43.001Z</time>
      </trkpt>
      <trkpt lat="45.67716" lon="5.85155">
        <ele>345.804</ele>
        <time>2019-10-06T14:07:13.001Z</time>
      </trkpt>
      <trkpt lat="45.67803" lon="5.85243">
        <ele>340.612</ele>
        <time>2019-10-06T14:07:43.001Z</time>
      </trkpt>
      <trkpt lat="45.67888" lon="5.8546">
        <ele>324.365</ele>
        <time>2019-10-06T14:08:13.001Z</time>
      </trkpt>
      <trkpt lat="45.68031" lon="5.85525">
        <ele>301.107</ele>
        <time>2019-10-06T14:08:46.001Z</time>
      </trkpt>
      <trkpt lat="45.68154" lon="5.85554">
        <ele>304.811</ele>
        <time>2019-10-06T14:09:16Z</time>
      </trkpt>
      <trkpt lat="45.68111" lon="5.85656">
        <ele>297.279</ele>
        <time>2019-10-06T14:09:46.001Z</time>
      </trkpt>
      <trkpt lat="45.67883" lon="5.85666">
        <ele>286.633</ele>
        <time>2019-10-06T14:10:16Z</time>
      </trkpt>
      <trkpt lat="45.67804" lon="5.85649">
        <ele>291.615</ele>
        <time>2019-10-06T14:11:22.001Z</time>
      </trkpt>
      <trkpt lat="45.67697" lon="5.85643">
        <ele>289.963</ele>
        <time>2019-10-06T14:11:52.001Z</time>
      </trkpt>
      <trkpt lat="45.67551" lon="5.85625">
        <ele>285.033</ele>
        <time>2019-10-06T14:12:22.001Z</time>
      </trkpt>
      <trkpt lat="45.67309" lon="5.85654">
        <ele>273.288</ele>
        <time>2019-10-06T14:12:52.001Z</time>
      </trkpt>
      <trkpt lat="45.67026" lon="5.85703">
        <ele>258.739</ele>
        <time>2019-10-06T14:13:25.001Z</time>
      </trkpt>
      <trkpt lat="45.66802" lon="5.85745">
        <ele>222.856</ele>
        <time>2019-10-06T14:13:58.001Z</time>
      </trkpt>
      <trkpt lat="45.66686" lon="5.85808">
        <ele>226.398</ele>
        <time>2019-10-06T14:14:28.001Z</time>
      </trkpt>
      <trkpt lat="45.66565" lon="5.8585">
        <ele>234.956</ele>
        <time>2019-10-06T14:14:58.001Z</time>
      </trkpt>
      <trkpt lat="45.66448" lon="5.85851">
        <ele>228.12</ele>
        <time>2019-10-06T14:15:28.001Z</time>
      </trkpt>
      <trkpt lat="45.66329" lon="5.858">
        <ele>230.472</ele>
        <time>2019-10-06T14:15:58.001Z</time>
      </trkpt>
      <trkpt lat="45.66195" lon="5.85822">
        <ele>229.096</ele>
        <time>2019-10-06T14:16:28.001Z</time>
      </trkpt>
      <trkpt lat="45.66035" lon="5.85836">
        <ele>233.449</ele>
        <time>2019-10-06T14:17:01.001Z</time>
      </trkpt>
      <trkpt lat="45.65902" lon="5.85882">
        <ele>233.394</ele>
        <time>2019-10-06T14:17:31.001Z</time>
      </trkpt>
      <trkpt lat="45.65767" lon="5.85854">
        <ele>236.883</ele>
        <time>2019-10-06T14:18:01.001Z</time>
      </trkpt>
      <trkpt lat="45.65641" lon="5.85891">
        <ele>243.01</ele>
        <time>2019-10-06T14:18:31.001Z</time>
      </trkpt>
      <trkpt lat="45.65536" lon="5.85973">
        <ele>240.001</ele>
        <time>2019-10-06T14:19:01.001Z</time>
      </trkpt>
      <trkpt lat="45.65565" lon="5.8596">
        <ele>240.11</ele>
        <time>2019-10-06T14:24:55.001Z</time>
      </trkpt>
      <trkpt lat="45.65481" lon="5.86012">
        <ele>241.789</ele>
        <time>2019-10-06T14:25:25.001Z</time>
      </trkpt>
      <trkpt lat="45.65505" lon="5.86184">
        <ele>239.079</ele>
        <time>2019-10-06T14:25:58.001Z</time>
      </trkpt>
      <trkpt lat="45.65385" lon="5.86188">
        <ele>234.258</ele>
        <time>2019-10-06T14:26:28.001Z</time>
      </trkpt>
      <trkpt lat="45.65251" lon="5.86237">
        <ele>232.797</ele>
        <time>2019-10-06T14:26:58.001Z</time>
      </trkpt>
      <trkpt lat="45.65148" lon="5.86202">
        <ele>232.799</ele>
        <time>2019-10-06T14:27:28.001Z</time>
      </trkpt>
      <trkpt lat="45.65026" lon="5.8618">
        <ele>240.922</ele>
        <time>2019-10-06T14:27:58.001Z</time>
      </trkpt>
      <trkpt lat="45.64959" lon="5.86289">
        <ele>239.299</ele>
        <time>2019-10-06T14:28:28.001Z</time>
      </trkpt>
      <trkpt lat="45.64856" lon="5.86444">
        <ele>237.177</ele>
        <time>2019-10-06T14:28:58.001Z</time>
      </trkpt>
      <trkpt lat="45.64787" lon="5.86347">
        <ele>237.612</ele>
        <time>2019-10-06T14:29:31.001Z</time>
      </trkpt>
      <trkpt lat="45.64726" lon="5.86379">
        <ele>247.217</ele>
        <time>2019-10-06T14:30:01.001Z</time>
      </trkpt>
      <trkpt lat="45.646" lon="5.86519">
        <ele>244.862</ele>
        <time>2019-10-06T14:30:31.001Z</time>
      </trkpt>
      <trkpt lat="45.64503" lon="5.86602">
        <ele>237.868</ele>
        <time>2019-10-06T14:31:01.001Z</time>
      </trkpt>
      <trkpt lat="45.64406" lon="5.86652">
        <ele>239.933</ele>
        <time>2019-10-06T14:31:31.001Z</time>
      </trkpt>
      <trkpt lat="45.64298" lon="5.86719">
        <ele>241.223</ele>
        <time>2019-10-06T14:32:01.001Z</time>
      </trkpt>
      <trkpt lat="45.64178" lon="5.86784">
        <ele>250.73</ele>
        <time>2019-10-06T14:32:31.001Z</time>
      </trkpt>
      <trkpt lat="45.64034" lon="5.86872">
        <ele>250.37</ele>
        <time>2019-10-06T14:33:04.001Z</time>
      </trkpt>
      <trkpt lat="45.6388" lon="5.86944">
        <ele>241.013</ele>
        <time>2019-10-06T14:33:34.001Z</time>
      </trkpt>
      <trkpt lat="45.63752" lon="5.86977">
        <ele>238.727</ele>
        <time>2019-10-06T14:34:04.001Z</time>
      </trkpt>
      <trkpt lat="45.63613" lon="5.87001">
        <ele>235.996</ele>
        <time>2019-10-06T14:34:34.001Z</time>
      </trkpt>
      <trkpt lat="45.63477" lon="5.87058">
        <ele>236.64</ele>
        <time>2019-10-06T14:35:04.001Z</time>
      </trkpt>
      <trkpt lat="45.63338" lon="5.87094">
        <ele>236.284</ele>
        <time>2019-10-06T14:35:34.001Z</time>
      </trkpt>
      <trkpt lat="45.632" lon="5.87142">
        <ele>238.134</ele>
        <time>2019-10-06T14:36:04.001Z</time>
      </trkpt>
      <trkpt lat="45.6306" lon="5.87197">
        <ele>236.599</ele>
        <time>2019-10-06T14:36:34.001Z</time>
      </trkpt>
      <trkpt lat="45.62914" lon="5.87296">
        <ele>242.2</ele>
        <time>2019-10-06T14:37:07.001Z</time>
      </trkpt>
      <trkpt lat="45.62784" lon="5.8737">
        <ele>242.081</ele>
        <time>2019-10-06T14:37:37.001Z</time>
      </trkpt>
      <trkpt lat="45.62655" lon="5.87319">
        <ele>246.833</ele>
        <time>2019-10-06T14:38:07.001Z</time>
      </trkpt>
      <trkpt lat="45.62529" lon="5.87369">
        <ele>245.232</ele>
        <time>2019-10-06T14:38:37.001Z</time>
      </trkpt>
      <trkpt lat="45.62409" lon="5.8747">
        <ele>243.433</ele>
        <time>2019-10-06T14:39:07.001Z</time>
      </trkpt>
      <trkpt lat="45.62295" lon="5.87588">
        <ele>241.628</ele>
        <time>2019-10-06T14:39:37.001Z</time>
      </trkpt>
      <trkpt lat="45.62177" lon="5.87717">
        <ele>241.395</ele>
        <time>2019-10-06T14:40:07.001Z</time>
      </trkpt>
      <trkpt lat="45.62044" lon="5.87845">
        <ele>245.901</ele>
        <time>2019-10-06T14:40:40.001Z</time>
      </trkpt>
      <trkpt lat="45.6192" lon="5.87964">
        <ele>249.642</ele>
        <time>2019-10-06T14:41:10.001Z</time>
      </trkpt>
      <trkpt lat="45.61796" lon="5.88087">
        <ele>247.777</ele>
        <time>2019-10-06T14:41:40.001Z</time>
      </trkpt>
      <trkpt lat="45.61685" lon="5.88257">
        <ele>246.966</ele>
        <time>2019-10-06T14:42:10.001Z</time>
      </trkpt>
      <trkpt lat="45.6155" lon="5.8833">
        <ele>248.355</ele>
        <time>2019-10-06T14:42:40.001Z</time>
      </trkpt>
      <trkpt lat="45.61385" lon="5.88335">
        <ele>247.585</ele>
        <time>2019-10-06T14:43:10.001Z</time>
      </trkpt>
      <trkpt lat="45.61239" lon="5.88336">
        <ele>253.121</ele>
        <time>2019-10-06T14:43:40.001Z</time>
      </trkpt>
      <trkpt lat="45.61069" lon="5.8837">
        <ele>249.207</ele>
        <time>2019-10-06T14:44:13.001Z</time>
      </trkpt>
      <trkpt lat="45.60932" lon="5.88436">
        <ele>252.609</ele>
        <time>2019-10-06T14:44:43.001Z</time>
      </trkpt>
      <trkpt lat="45.60781" lon="5.88503">
        <ele>251.77</ele>
        <time>2019-10-06T14:45:13.001Z</time>
      </trkpt>
      <trkpt lat="45.60646" lon="5.88565">
        <ele>255.377</ele>
        <time>2019-10-06T14:45:43.001Z</time>
      </trkpt>
      <trkpt lat="45.60567" lon="5.8854">
        <ele>260.573</ele>
        <time>2019-10-06T14:46:13.001Z</time>
      </trkpt>
      <trkpt lat="45.60585" lon="5.88355">
        <ele>253.872</ele>
        <time>2019-10-06T14:46:43.001Z</time>
      </trkpt>
      <trkpt lat="45.60507" lon="5.88193">
        <ele>245.481</ele>
        <time>2019-10-06T14:47:13.001Z</time>
      </trkpt>
      <trkpt lat="45.60385" lon="5.88104">
        <ele>247.09</ele>
        <time>2019-10-06T14:47:46.001Z</time>
      </trkpt>
      <trkpt lat="45.60336" lon="5.87935">
        <ele>255.282</ele>
        <time>2019-10-06T14:48:16Z</time>
      </trkpt>
      <trkpt lat="45.60312" lon="5.87778">
        <ele>259.02</ele>
        <time>2019-10-06T14:48:46.001Z</time>
      </trkpt>
      <trkpt lat="45.60295" lon="5.8765">
        <ele>254.944</ele>
        <time>2019-10-06T14:49:16Z</time>
      </trkpt>
      <trkpt lat="45.60188" lon="5.87649">
        <ele>261.678</ele>
        <time>2019-10-06T14:49:46.001Z</time>
      </trkpt>
      <trkpt lat="45.60089" lon="5.87624">
        <ele>276.566</ele>
        <time>2019-10-06T14:50:16Z</time>
      </trkpt>
      <trkpt lat="45.59999" lon="5.87719">
        <ele>268.507</ele>
        <time>2019-10-06T14:50:46.001Z</time>
      </trkpt>
      <trkpt lat="45.59899" lon="5.87664">
        <ele>255.168</ele>
        <time>2019-10-06T14:51:19.001Z</time>
      </trkpt>
      <trkpt lat="45.59797" lon="5.87677">
        <ele>263.021</ele>
        <time>2019-10-06T14:51:49.001Z</time>
      </trkpt>
      <trkpt lat="45.59747" lon="5.87611">
        <ele>269.888</ele>
        <time>2019-10-06T14:52:19.001Z</time>
      </trkpt>
      <trkpt lat="45.59737" lon="5.87493">
        <ele>266.906</ele>
        <time>2019-10-06T14:52:49.001Z</time>
      </trkpt>
      <trkpt lat="45.59841" lon="5.87425">
        <ele>273.721</ele>
        <time>2019-10-06T14:53:19.001Z</time>
      </trkpt>
      <trkpt lat="45.5997" lon="5.87349">
        <ele>270.428</ele>
        <time>2019-10-06T14:53:49.001Z</time>
      </trkpt>
      <trkpt lat="45.60015" lon="5.87383">
        <ele>269.535</ele>
        <time>2019-10-06T14:54:19.001Z</time>
      </trkpt>
      <trkpt lat="45.60022" lon="5.87502">
        <ele>283.916</ele>
        <time>2019-10-06T14:54:52.001Z</time>
      </trkpt>
      <trkpt lat="45.60021" lon="5.87459">
        <ele>279.563</ele>
        <time>2019-10-06T14:56:46.001Z</time>
      </trkpt>
      <trkpt lat="45.6" lon="5.8741">
        <ele>285.68</ele>
        <time>2019-10-06T14:57:43.001Z</time>
      </trkpt>
      <trkpt lat="45.59991" lon="5.87413">
        <ele>271.294</ele>
        <time>2019-10-06T15:01:43.001Z</time>
      </trkpt>
    </trkseg>
  </trk>
</gpx>